sensor_id;sensor_type;location;lat;lon;timestamp;temperature;humidity
47168;DHT22;32931;47.778;17.806;2023-08-31T00:01:11;18.10;99.90
47168;DHT22;32931;47.778;17.806;2023-08-31T00:03:37;18.10;99.90
47168;DHT22;32931;47.778;17.806;2023-08-31T00:06:04;18.10;99.90
47168;DHT22;32931;47.778;17.806;2023-08-31T00:08:34;18.10;99.90
47168;DHT22;32931;47.778;17.806;2023-08-31T00:11:00;18.00;99.90
47168;DHT22;32931;47.778;17.806;2023-08-31T00:13:27;18.10;99.90
47168;DHT22;32931;47.778;17.806;2023-08-31T00:15:57;18.10;99.90
47168;DHT22;32931;47.778;17.806;2023-08-31T00:18:23;18.00;99.90
47168;DHT22;32931;47.778;17.806;2023-08-31T00:20:53;18.00;99.90
47168;DHT22;32931;47.778;17.806;2023-08-31T00:23:19;17.90;99.90
47168;DHT22;32931;47.778;17.806;2023-08-31T00:25:46;17.90;99.90
47168;DHT22;32931;47.778;17.806;2023-08-31T00:28:17;17.90;99.90
47168;DHT22;32931;47.778;17.806;2023-08-31T00:30:44;18.00;99.90
47168;DHT22;32931;47.778;17.806;2023-08-31T00:33:12;17.90;99.90
47168;DHT22;32931;47.778;17.806;2023-08-31T00:35:38;17.90;99.90
47168;DHT22;32931;47.778;17.806;2023-08-31T00:38:08;17.90;99.90
47168;DHT22;32931;47.778;17.806;2023-08-31T00:40:39;17.90;99.90
47168;DHT22;32931;47.778;17.806;2023-08-31T00:43:06;17.90;99.90
47168;DHT22;32931;47.778;17.806;2023-08-31T00:45:33;17.90;99.90
47168;DHT22;32931;47.778;17.806;2023-08-31T00:48:00;17.90;99.90
47168;DHT22;32931;47.778;17.806;2023-08-31T00:50:27;18.00;99.90
47168;DHT22;32931;47.778;17.806;2023-08-31T00:52:53;18.00;99.90
47168;DHT22;32931;47.778;17.806;2023-08-31T00:55:19;18.00;99.90
47168;DHT22;32931;47.778;17.806;2023-08-31T00:57:45;18.00;99.90
47168;DHT22;32931;47.778;17.806;2023-08-31T01:00:12;18.00;99.90
47168;DHT22;32931;47.778;17.806;2023-08-31T01:05:52;17.90;99.90
47168;DHT22;32931;47.778;17.806;2023-08-31T01:12:02;17.70;99.90
47168;DHT22;32931;47.778;17.806;2023-08-31T01:14:12;17.60;99.90
47168;DHT22;32931;47.778;17.806;2023-08-31T01:16:42;17.60;99.90
47168;DHT22;32931;47.778;17.806;2023-08-31T01:21:59;17.60;99.90
47168;DHT22;32931;47.778;17.806;2023-08-31T01:24:26;17.60;99.90
47168;DHT22;32931;47.778;17.806;2023-08-31T01:26:52;17.60;99.90
47168;DHT22;32931;47.778;17.806;2023-08-31T01:29:19;17.60;99.90
47168;DHT22;32931;47.778;17.806;2023-08-31T01:31:45;17.50;99.90
47168;DHT22;32931;47.778;17.806;2023-08-31T01:34:11;17.50;99.90
47168;DHT22;32931;47.778;17.806;2023-08-31T01:36:43;17.50;99.90
47168;DHT22;32931;47.778;17.806;2023-08-31T01:39:37;17.60;99.90
47168;DHT22;32931;47.778;17.806;2023-08-31T01:42:08;17.60;99.90
47168;DHT22;32931;47.778;17.806;2023-08-31T01:44:37;17.50;99.90
47168;DHT22;32931;47.778;17.806;2023-08-31T01:47:05;17.60;99.90
47168;DHT22;32931;47.778;17.806;2023-08-31T01:49:39;17.60;99.90
47168;DHT22;32931;47.778;17.806;2023-08-31T01:52:05;17.60;99.90
47168;DHT22;32931;47.778;17.806;2023-08-31T01:54:32;17.60;99.90
47168;DHT22;32931;47.778;17.806;2023-08-31T01:56:58;17.60;99.90
47168;DHT22;32931;47.778;17.806;2023-08-31T01:59:25;17.70;99.90
47168;DHT22;32931;47.778;17.806;2023-08-31T02:01:51;17.70;99.90
47168;DHT22;32931;47.778;17.806;2023-08-31T02:04:17;17.60;99.90
47168;DHT22;32931;47.778;17.806;2023-08-31T02:06:43;17.60;99.90
47168;DHT22;32931;47.778;17.806;2023-08-31T02:09:09;17.70;99.90
47168;DHT22;32931;47.778;17.806;2023-08-31T02:11:35;17.70;99.90
47168;DHT22;32931;47.778;17.806;2023-08-31T02:14:04;17.70;99.90
47168;DHT22;32931;47.778;17.806;2023-08-31T02:16:31;17.70;99.90
47168;DHT22;32931;47.778;17.806;2023-08-31T02:18:58;17.70;99.90
47168;DHT22;32931;47.778;17.806;2023-08-31T02:21:24;17.70;99.90
47168;DHT22;32931;47.778;17.806;2023-08-31T02:23:51;17.70;99.90
47168;DHT22;32931;47.778;17.806;2023-08-31T02:26:17;17.80;99.90
47168;DHT22;32931;47.778;17.806;2023-08-31T02:28:43;17.70;99.90
47168;DHT22;32931;47.778;17.806;2023-08-31T02:31:10;17.70;99.90
47168;DHT22;32931;47.778;17.806;2023-08-31T02:33:37;17.70;99.90
47168;DHT22;32931;47.778;17.806;2023-08-31T02:36:04;17.60;99.90
47168;DHT22;32931;47.778;17.806;2023-08-31T02:38:30;17.60;99.90
47168;DHT22;32931;47.778;17.806;2023-08-31T02:40:56;17.60;99.90
47168;DHT22;32931;47.778;17.806;2023-08-31T02:43:22;17.60;99.90
47168;DHT22;32931;47.778;17.806;2023-08-31T02:45:48;17.60;99.90
47168;DHT22;32931;47.778;17.806;2023-08-31T02:48:14;17.60;99.90
47168;DHT22;32931;47.778;17.806;2023-08-31T02:50:40;17.60;99.90
47168;DHT22;32931;47.778;17.806;2023-08-31T02:53:07;17.60;99.90
47168;DHT22;32931;47.778;17.806;2023-08-31T02:55:33;17.60;99.90
47168;DHT22;32931;47.778;17.806;2023-08-31T02:57:59;17.60;99.90
47168;DHT22;32931;47.778;17.806;2023-08-31T03:00:25;17.50;99.90
47168;DHT22;32931;47.778;17.806;2023-08-31T03:02:52;17.60;99.90
47168;DHT22;32931;47.778;17.806;2023-08-31T03:05:18;17.50;99.90
47168;DHT22;32931;47.778;17.806;2023-08-31T03:07:45;17.50;99.90
47168;DHT22;32931;47.778;17.806;2023-08-31T03:10:11;17.40;99.90
47168;DHT22;32931;47.778;17.806;2023-08-31T03:12:37;17.40;99.90
47168;DHT22;32931;47.778;17.806;2023-08-31T03:15:05;17.50;99.90
47168;DHT22;32931;47.778;17.806;2023-08-31T03:17:32;17.40;99.90
47168;DHT22;32931;47.778;17.806;2023-08-31T03:19:58;17.40;99.90
47168;DHT22;32931;47.778;17.806;2023-08-31T03:22:24;17.40;99.90
47168;DHT22;32931;47.778;17.806;2023-08-31T03:24:50;17.40;99.90
47168;DHT22;32931;47.778;17.806;2023-08-31T03:27:16;17.40;99.90
47168;DHT22;32931;47.778;17.806;2023-08-31T03:29:42;17.40;99.90
47168;DHT22;32931;47.778;17.806;2023-08-31T03:32:08;17.30;99.90
47168;DHT22;32931;47.778;17.806;2023-08-31T03:34:35;17.30;99.90
47168;DHT22;32931;47.778;17.806;2023-08-31T03:37:01;17.30;99.90
47168;DHT22;32931;47.778;17.806;2023-08-31T03:39:27;17.30;99.90
47168;DHT22;32931;47.778;17.806;2023-08-31T03:41:53;17.30;99.90
47168;DHT22;32931;47.778;17.806;2023-08-31T03:44:23;17.30;99.90
47168;DHT22;32931;47.778;17.806;2023-08-31T03:46:49;17.30;99.90
47168;DHT22;32931;47.778;17.806;2023-08-31T03:49:15;17.30;99.90
47168;DHT22;32931;47.778;17.806;2023-08-31T03:51:41;17.30;99.90
47168;DHT22;32931;47.778;17.806;2023-08-31T03:54:07;17.20;99.90
47168;DHT22;32931;47.778;17.806;2023-08-31T03:56:33;17.30;99.90
47168;DHT22;32931;47.778;17.806;2023-08-31T03:59:02;17.20;99.90
47168;DHT22;32931;47.778;17.806;2023-08-31T04:01:30;17.20;99.90
47168;DHT22;32931;47.778;17.806;2023-08-31T04:03:56;17.20;99.90
47168;DHT22;32931;47.778;17.806;2023-08-31T04:06:23;17.20;99.90
47168;DHT22;32931;47.778;17.806;2023-08-31T04:08:49;17.20;99.90
47168;DHT22;32931;47.778;17.806;2023-08-31T04:11:15;17.30;99.90
47168;DHT22;32931;47.778;17.806;2023-08-31T04:13:41;17.30;99.90
47168;DHT22;32931;47.778;17.806;2023-08-31T04:16:07;17.20;99.90
47168;DHT22;32931;47.778;17.806;2023-08-31T04:18:33;17.30;99.90
47168;DHT22;32931;47.778;17.806;2023-08-31T04:20:59;17.30;99.90
47168;DHT22;32931;47.778;17.806;2023-08-31T04:23:29;17.30;99.90
47168;DHT22;32931;47.778;17.806;2023-08-31T04:25:55;17.30;99.90
47168;DHT22;32931;47.778;17.806;2023-08-31T04:28:24;17.30;99.90
47168;DHT22;32931;47.778;17.806;2023-08-31T04:30:50;17.30;99.90
47168;DHT22;32931;47.778;17.806;2023-08-31T04:33:17;17.30;99.90
47168;DHT22;32931;47.778;17.806;2023-08-31T04:35:43;17.30;99.90
47168;DHT22;32931;47.778;17.806;2023-08-31T04:38:09;17.20;99.90
47168;DHT22;32931;47.778;17.806;2023-08-31T04:40:35;17.20;99.90
47168;DHT22;32931;47.778;17.806;2023-08-31T04:43:03;17.20;99.90
47168;DHT22;32931;47.778;17.806;2023-08-31T04:45:29;17.20;99.90
47168;DHT22;32931;47.778;17.806;2023-08-31T04:47:56;17.30;99.90
47168;DHT22;32931;47.778;17.806;2023-08-31T04:50:22;17.30;99.90
47168;DHT22;32931;47.778;17.806;2023-08-31T04:52:48;17.20;99.90
47168;DHT22;32931;47.778;17.806;2023-08-31T04:55:14;17.30;99.90
47168;DHT22;32931;47.778;17.806;2023-08-31T04:57:40;17.30;99.90
47168;DHT22;32931;47.778;17.806;2023-08-31T05:00:07;17.30;99.90
47168;DHT22;32931;47.778;17.806;2023-08-31T05:02:37;17.30;99.90
47168;DHT22;32931;47.778;17.806;2023-08-31T05:05:04;17.30;99.90
47168;DHT22;32931;47.778;17.806;2023-08-31T05:07:31;17.40;99.90
47168;DHT22;32931;47.778;17.806;2023-08-31T05:09:57;17.40;99.90
47168;DHT22;32931;47.778;17.806;2023-08-31T05:12:24;17.40;99.90
47168;DHT22;32931;47.778;17.806;2023-08-31T05:14:50;17.50;99.90
47168;DHT22;32931;47.778;17.806;2023-08-31T05:17:16;17.50;99.90
47168;DHT22;32931;47.778;17.806;2023-08-31T05:19:42;17.50;99.90
47168;DHT22;32931;47.778;17.806;2023-08-31T05:22:08;17.60;99.90
47168;DHT22;32931;47.778;17.806;2023-08-31T05:24:34;17.60;99.90
47168;DHT22;32931;47.778;17.806;2023-08-31T05:27:00;17.60;99.90
47168;DHT22;32931;47.778;17.806;2023-08-31T05:29:26;17.60;99.90
47168;DHT22;32931;47.778;17.806;2023-08-31T05:31:52;17.70;99.90
47168;DHT22;32931;47.778;17.806;2023-08-31T05:34:21;17.70;99.90
47168;DHT22;32931;47.778;17.806;2023-08-31T05:36:48;17.80;99.90
47168;DHT22;32931;47.778;17.806;2023-08-31T05:39:15;17.80;99.90
47168;DHT22;32931;47.778;17.806;2023-08-31T05:41:43;17.80;99.90
47168;DHT22;32931;47.778;17.806;2023-08-31T05:44:10;17.90;99.90
47168;DHT22;32931;47.778;17.806;2023-08-31T05:46:36;17.90;99.90
47168;DHT22;32931;47.778;17.806;2023-08-31T05:49:04;17.80;99.90
47168;DHT22;32931;47.778;17.806;2023-08-31T05:51:30;17.90;99.90
47168;DHT22;32931;47.778;17.806;2023-08-31T05:53:56;17.80;99.90
47168;DHT22;32931;47.778;17.806;2023-08-31T05:56:22;17.90;99.90
47168;DHT22;32931;47.778;17.806;2023-08-31T05:58:48;17.90;99.90
47168;DHT22;32931;47.778;17.806;2023-08-31T06:01:16;18.00;99.90
47168;DHT22;32931;47.778;17.806;2023-08-31T06:03:43;18.00;99.90
47168;DHT22;32931;47.778;17.806;2023-08-31T06:06:09;18.10;99.90
47168;DHT22;32931;47.778;17.806;2023-08-31T06:08:35;18.10;99.90
47168;DHT22;32931;47.778;17.806;2023-08-31T06:11:01;18.20;99.90
47168;DHT22;32931;47.778;17.806;2023-08-31T06:13:27;18.20;99.90
47168;DHT22;32931;47.778;17.806;2023-08-31T06:15:53;18.20;99.90
47168;DHT22;32931;47.778;17.806;2023-08-31T06:18:21;18.20;99.90
47168;DHT22;32931;47.778;17.806;2023-08-31T06:20:49;18.30;99.90
47168;DHT22;32931;47.778;17.806;2023-08-31T06:23:15;18.20;99.90
47168;DHT22;32931;47.778;17.806;2023-08-31T06:25:42;18.20;99.90
47168;DHT22;32931;47.778;17.806;2023-08-31T06:28:08;18.20;99.90
47168;DHT22;32931;47.778;17.806;2023-08-31T06:30:37;18.20;99.90
47168;DHT22;32931;47.778;17.806;2023-08-31T06:33:03;18.20;99.90
47168;DHT22;32931;47.778;17.806;2023-08-31T06:35:30;18.30;99.90
47168;DHT22;32931;47.778;17.806;2023-08-31T06:37:57;18.30;99.90
47168;DHT22;32931;47.778;17.806;2023-08-31T06:40:24;18.30;99.90
47168;DHT22;32931;47.778;17.806;2023-08-31T06:42:50;18.30;99.90
47168;DHT22;32931;47.778;17.806;2023-08-31T06:45:16;18.30;99.90
47168;DHT22;32931;47.778;17.806;2023-08-31T06:47:43;18.30;99.90
47168;DHT22;32931;47.778;17.806;2023-08-31T06:50:09;18.40;99.90
47168;DHT22;32931;47.778;17.806;2023-08-31T06:52:35;18.40;99.90
47168;DHT22;32931;47.778;17.806;2023-08-31T06:55:02;18.50;99.90
47168;DHT22;32931;47.778;17.806;2023-08-31T06:57:29;18.50;99.90
47168;DHT22;32931;47.778;17.806;2023-08-31T06:59:55;18.50;99.90
47168;DHT22;32931;47.778;17.806;2023-08-31T07:02:21;18.60;99.90
47168;DHT22;32931;47.778;17.806;2023-08-31T07:04:50;18.70;99.90
47168;DHT22;32931;47.778;17.806;2023-08-31T07:07:18;18.60;99.90
47168;DHT22;32931;47.778;17.806;2023-08-31T07:09:46;18.70;99.90
47168;DHT22;32931;47.778;17.806;2023-08-31T07:12:12;18.80;99.90
47168;DHT22;32931;47.778;17.806;2023-08-31T07:14:38;18.80;99.90
47168;DHT22;32931;47.778;17.806;2023-08-31T07:17:04;18.80;99.90
47168;DHT22;32931;47.778;17.806;2023-08-31T07:19:30;18.90;99.90
47168;DHT22;32931;47.778;17.806;2023-08-31T07:21:57;19.10;99.90
47168;DHT22;32931;47.778;17.806;2023-08-31T07:24:24;19.10;99.90
47168;DHT22;32931;47.778;17.806;2023-08-31T07:26:50;19.30;99.90
47168;DHT22;32931;47.778;17.806;2023-08-31T07:29:16;19.40;99.90
47168;DHT22;32931;47.778;17.806;2023-08-31T07:31:42;19.50;99.90
47168;DHT22;32931;47.778;17.806;2023-08-31T07:34:09;19.60;99.90
47168;DHT22;32931;47.778;17.806;2023-08-31T07:36:35;19.60;99.90
47168;DHT22;32931;47.778;17.806;2023-08-31T07:39:01;19.50;99.90
47168;DHT22;32931;47.778;17.806;2023-08-31T07:41:27;19.50;99.90
47168;DHT22;32931;47.778;17.806;2023-08-31T07:43:53;19.60;99.90
47168;DHT22;32931;47.778;17.806;2023-08-31T07:46:19;19.70;99.90
47168;DHT22;32931;47.778;17.806;2023-08-31T07:48:45;19.80;99.90
47168;DHT22;32931;47.778;17.806;2023-08-31T07:51:14;19.80;99.90
47168;DHT22;32931;47.778;17.806;2023-08-31T07:53:40;20.00;99.90
47168;DHT22;32931;47.778;17.806;2023-08-31T07:56:06;20.00;99.90
47168;DHT22;32931;47.778;17.806;2023-08-31T07:58:32;20.10;99.90
47168;DHT22;32931;47.778;17.806;2023-08-31T08:00:59;20.20;99.90
47168;DHT22;32931;47.778;17.806;2023-08-31T08:03:25;20.30;99.90
47168;DHT22;32931;47.778;17.806;2023-08-31T08:05:51;20.30;99.90
47168;DHT22;32931;47.778;17.806;2023-08-31T08:08:17;20.40;99.90
47168;DHT22;32931;47.778;17.806;2023-08-31T08:10:44;20.40;99.90
47168;DHT22;32931;47.778;17.806;2023-08-31T08:13:10;20.50;99.90
47168;DHT22;32931;47.778;17.806;2023-08-31T08:15:37;20.50;99.90
47168;DHT22;32931;47.778;17.806;2023-08-31T08:18:04;20.60;99.90
47168;DHT22;32931;47.778;17.806;2023-08-31T08:20:31;20.70;99.90
47168;DHT22;32931;47.778;17.806;2023-08-31T08:22:57;20.70;99.90
47168;DHT22;32931;47.778;17.806;2023-08-31T08:25:24;20.70;99.90
47168;DHT22;32931;47.778;17.806;2023-08-31T08:27:50;20.70;99.90
47168;DHT22;32931;47.778;17.806;2023-08-31T08:30:16;20.80;99.90
47168;DHT22;32931;47.778;17.806;2023-08-31T08:32:44;20.70;99.90
47168;DHT22;32931;47.778;17.806;2023-08-31T08:35:10;20.70;99.90
47168;DHT22;32931;47.778;17.806;2023-08-31T08:37:37;20.70;99.90
47168;DHT22;32931;47.778;17.806;2023-08-31T08:40:03;20.70;99.90
47168;DHT22;32931;47.778;17.806;2023-08-31T08:42:32;20.70;99.90
47168;DHT22;32931;47.778;17.806;2023-08-31T08:45:05;20.80;99.90
47168;DHT22;32931;47.778;17.806;2023-08-31T08:47:34;20.90;99.90
47168;DHT22;32931;47.778;17.806;2023-08-31T08:50:02;20.90;99.90
47168;DHT22;32931;47.778;17.806;2023-08-31T08:52:28;21.10;99.90
47168;DHT22;32931;47.778;17.806;2023-08-31T08:54:56;21.00;99.90
47168;DHT22;32931;47.778;17.806;2023-08-31T08:57:22;21.00;99.90
47168;DHT22;32931;47.778;17.806;2023-08-31T08:59:48;21.00;99.90
47168;DHT22;32931;47.778;17.806;2023-08-31T09:02:14;21.00;99.90
47168;DHT22;32931;47.778;17.806;2023-08-31T09:04:40;21.10;99.90
47168;DHT22;32931;47.778;17.806;2023-08-31T09:07:06;21.20;99.90
47168;DHT22;32931;47.778;17.806;2023-08-31T09:09:48;21.20;99.90
47168;DHT22;32931;47.778;17.806;2023-08-31T09:12:16;21.40;99.90
47168;DHT22;32931;47.778;17.806;2023-08-31T09:14:42;21.40;99.90
47168;DHT22;32931;47.778;17.806;2023-08-31T09:17:09;21.50;99.90
47168;DHT22;32931;47.778;17.806;2023-08-31T09:19:35;21.50;99.90
47168;DHT22;32931;47.778;17.806;2023-08-31T09:22:01;21.60;99.90
47168;DHT22;32931;47.778;17.806;2023-08-31T09:24:28;21.70;99.90
47168;DHT22;32931;47.778;17.806;2023-08-31T09:26:57;21.70;99.90
47168;DHT22;32931;47.778;17.806;2023-08-31T09:29:24;21.70;99.90
47168;DHT22;32931;47.778;17.806;2023-08-31T09:31:51;21.70;99.90
47168;DHT22;32931;47.778;17.806;2023-08-31T09:34:18;21.80;99.90
47168;DHT22;32931;47.778;17.806;2023-08-31T09:36:44;21.90;99.90
47168;DHT22;32931;47.778;17.806;2023-08-31T09:39:12;21.90;99.90
47168;DHT22;32931;47.778;17.806;2023-08-31T09:42:05;22.00;99.90
47168;DHT22;32931;47.778;17.806;2023-08-31T09:44:32;22.10;97.90
47168;DHT22;32931;47.778;17.806;2023-08-31T09:46:58;22.10;98.60
47168;DHT22;32931;47.778;17.806;2023-08-31T09:49:25;22.20;98.60
47168;DHT22;32931;47.778;17.806;2023-08-31T09:51:52;22.30;98.70
47168;DHT22;32931;47.778;17.806;2023-08-31T09:54:20;22.40;98.10
47168;DHT22;32931;47.778;17.806;2023-08-31T09:56:47;22.40;98.10
47168;DHT22;32931;47.778;17.806;2023-08-31T09:59:15;22.50;98.10
47168;DHT22;32931;47.778;17.806;2023-08-31T10:01:45;22.60;98.40
47168;DHT22;32931;47.778;17.806;2023-08-31T10:04:11;22.70;98.50
47168;DHT22;32931;47.778;17.806;2023-08-31T10:06:39;22.70;98.00
47168;DHT22;32931;47.778;17.806;2023-08-31T10:09:06;22.70;97.90
47168;DHT22;32931;47.778;17.806;2023-08-31T10:11:35;22.80;97.80
47168;DHT22;32931;47.778;17.806;2023-08-31T10:14:04;22.80;97.40
47168;DHT22;32931;47.778;17.806;2023-08-31T10:16:30;22.90;97.40
47168;DHT22;32931;47.778;17.806;2023-08-31T10:18:56;23.00;97.30
47168;DHT22;32931;47.778;17.806;2023-08-31T10:21:23;23.00;97.50
47168;DHT22;32931;47.778;17.806;2023-08-31T10:23:50;23.00;96.70
47168;DHT22;32931;47.778;17.806;2023-08-31T10:26:28;23.10;97.00
47168;DHT22;32931;47.778;17.806;2023-08-31T10:28:55;23.10;96.00
47168;DHT22;32931;47.778;17.806;2023-08-31T10:31:22;23.10;97.20
47168;DHT22;32931;47.778;17.806;2023-08-31T10:34:08;23.10;97.50
47168;DHT22;32931;47.778;17.806;2023-08-31T10:36:44;23.20;96.30
47168;DHT22;32931;47.778;17.806;2023-08-31T10:39:12;23.20;96.70
47168;DHT22;32931;47.778;17.806;2023-08-31T10:41:39;23.30;96.20
47168;DHT22;32931;47.778;17.806;2023-08-31T10:44:25;23.30;95.60
47168;DHT22;32931;47.778;17.806;2023-08-31T10:46:53;23.40;94.80
47168;DHT22;32931;47.778;17.806;2023-08-31T10:49:21;23.50;95.10
47168;DHT22;32931;47.778;17.806;2023-08-31T10:52:01;23.60;95.00
47168;DHT22;32931;47.778;17.806;2023-08-31T10:54:40;23.60;93.20
47168;DHT22;32931;47.778;17.806;2023-08-31T10:57:06;23.60;94.60
47168;DHT22;32931;47.778;17.806;2023-08-31T10:59:57;23.60;94.50
47168;DHT22;32931;47.778;17.806;2023-08-31T11:05:01;23.60;93.50
47168;DHT22;32931;47.778;17.806;2023-08-31T11:07:31;23.50;93.60
47168;DHT22;32931;47.778;17.806;2023-08-31T11:10:16;23.50;93.60
47168;DHT22;32931;47.778;17.806;2023-08-31T11:12:44;23.50;92.60
47168;DHT22;32931;47.778;17.806;2023-08-31T11:15:15;23.50;94.10
47168;DHT22;32931;47.778;17.806;2023-08-31T11:17:42;23.50;93.50
47168;DHT22;32931;47.778;17.806;2023-08-31T11:20:19;23.40;93.30
47168;DHT22;32931;47.778;17.806;2023-08-31T11:22:47;23.40;91.90
47168;DHT22;32931;47.778;17.806;2023-08-31T11:25:16;23.40;93.20
47168;DHT22;32931;47.778;17.806;2023-08-31T11:27:53;23.30;93.40
47168;DHT22;32931;47.778;17.806;2023-08-31T11:30:19;23.40;92.60
47168;DHT22;32931;47.778;17.806;2023-08-31T11:32:47;23.50;93.20
47168;DHT22;32931;47.778;17.806;2023-08-31T11:35:15;23.70;92.90
47168;DHT22;32931;47.778;17.806;2023-08-31T11:37:45;23.80;92.50
47168;DHT22;32931;47.778;17.806;2023-08-31T11:40:13;23.90;91.70
47168;DHT22;32931;47.778;17.806;2023-08-31T11:42:41;23.90;91.00
47168;DHT22;32931;47.778;17.806;2023-08-31T11:45:08;24.00;91.60
47168;DHT22;32931;47.778;17.806;2023-08-31T11:47:35;24.00;92.20
47168;DHT22;32931;47.778;17.806;2023-08-31T11:50:02;24.10;91.90
47168;DHT22;32931;47.778;17.806;2023-08-31T11:52:33;24.30;91.90
47168;DHT22;32931;47.778;17.806;2023-08-31T11:54:59;24.40;90.50
47168;DHT22;32931;47.778;17.806;2023-08-31T11:57:26;24.40;89.10
47168;DHT22;32931;47.778;17.806;2023-08-31T11:59:55;24.30;90.80
47168;DHT22;32931;47.778;17.806;2023-08-31T12:02:24;24.40;90.20
47168;DHT22;32931;47.778;17.806;2023-08-31T12:04:50;24.30;89.50
47168;DHT22;32931;47.778;17.806;2023-08-31T12:07:18;24.10;90.20
47168;DHT22;32931;47.778;17.806;2023-08-31T12:09:47;24.00;89.80
47168;DHT22;32931;47.778;17.806;2023-08-31T12:12:14;24.00;89.40
47168;DHT22;32931;47.778;17.806;2023-08-31T12:14:43;24.10;90.20
47168;DHT22;32931;47.778;17.806;2023-08-31T12:17:09;24.10;88.50
47168;DHT22;32931;47.778;17.806;2023-08-31T12:19:39;24.10;89.10
47168;DHT22;32931;47.778;17.806;2023-08-31T12:22:06;24.00;90.20
47168;DHT22;32931;47.778;17.806;2023-08-31T12:24:38;24.00;90.30
47168;DHT22;32931;47.778;17.806;2023-08-31T12:27:07;24.00;88.90
47168;DHT22;32931;47.778;17.806;2023-08-31T12:29:33;24.00;90.40
47168;DHT22;32931;47.778;17.806;2023-08-31T12:31:59;24.00;89.90
47168;DHT22;32931;47.778;17.806;2023-08-31T12:34:25;24.00;88.50
47168;DHT22;32931;47.778;17.806;2023-08-31T12:36:52;23.90;88.50
47168;DHT22;32931;47.778;17.806;2023-08-31T12:39:18;24.00;87.80
47168;DHT22;32931;47.778;17.806;2023-08-31T12:41:44;24.00;85.90
47168;DHT22;32931;47.778;17.806;2023-08-31T12:44:11;23.90;85.50
47168;DHT22;32931;47.778;17.806;2023-08-31T12:46:37;23.90;85.40
47168;DHT22;32931;47.778;17.806;2023-08-31T12:49:03;23.90;85.60
47168;DHT22;32931;47.778;17.806;2023-08-31T12:51:30;23.80;86.40
47168;DHT22;32931;47.778;17.806;2023-08-31T12:53:57;23.90;87.60
47168;DHT22;32931;47.778;17.806;2023-08-31T12:56:23;23.90;86.80
47168;DHT22;32931;47.778;17.806;2023-08-31T12:58:53;23.90;87.30
47168;DHT22;32931;47.778;17.806;2023-08-31T13:01:20;23.90;82.60
47168;DHT22;32931;47.778;17.806;2023-08-31T13:03:47;23.80;83.50
47168;DHT22;32931;47.778;17.806;2023-08-31T13:06:14;23.80;82.70
47168;DHT22;32931;47.778;17.806;2023-08-31T13:08:42;23.80;82.30
47168;DHT22;32931;47.778;17.806;2023-08-31T13:11:11;23.80;82.90
47168;DHT22;32931;47.778;17.806;2023-08-31T13:13:38;23.80;82.70
47168;DHT22;32931;47.778;17.806;2023-08-31T13:16:04;23.90;84.00
47168;DHT22;32931;47.778;17.806;2023-08-31T13:18:30;23.90;83.60
47168;DHT22;32931;47.778;17.806;2023-08-31T13:20:57;24.00;83.10
47168;DHT22;32931;47.778;17.806;2023-08-31T13:23:23;24.00;83.00
47168;DHT22;32931;47.778;17.806;2023-08-31T13:25:50;24.00;82.00
47168;DHT22;32931;47.778;17.806;2023-08-31T13:28:16;23.90;82.70
47168;DHT22;32931;47.778;17.806;2023-08-31T13:30:43;23.90;81.10
47168;DHT22;32931;47.778;17.806;2023-08-31T13:33:09;23.90;82.20
47168;DHT22;32931;47.778;17.806;2023-08-31T13:35:35;23.90;83.10
47168;DHT22;32931;47.778;17.806;2023-08-31T13:38:02;24.00;82.80
47168;DHT22;32931;47.778;17.806;2023-08-31T13:40:29;24.00;81.10
47168;DHT22;32931;47.778;17.806;2023-08-31T13:42:57;23.90;82.30
47168;DHT22;32931;47.778;17.806;2023-08-31T13:45:27;23.90;82.50
47168;DHT22;32931;47.778;17.806;2023-08-31T13:47:53;24.00;82.80
47168;DHT22;32931;47.778;17.806;2023-08-31T13:50:20;24.00;83.10
47168;DHT22;32931;47.778;17.806;2023-08-31T13:52:46;24.10;81.80
47168;DHT22;32931;47.778;17.806;2023-08-31T13:55:12;24.10;82.30
47168;DHT22;32931;47.778;17.806;2023-08-31T13:57:41;24.20;82.30
47168;DHT22;32931;47.778;17.806;2023-08-31T14:00:08;24.20;82.60
47168;DHT22;32931;47.778;17.806;2023-08-31T14:02:36;24.30;83.00
47168;DHT22;32931;47.778;17.806;2023-08-31T14:05:05;24.30;84.10
47168;DHT22;32931;47.778;17.806;2023-08-31T14:07:35;24.30;83.10
47168;DHT22;32931;47.778;17.806;2023-08-31T14:10:02;24.30;82.50
47168;DHT22;32931;47.778;17.806;2023-08-31T14:12:31;24.40;81.60
47168;DHT22;32931;47.778;17.806;2023-08-31T14:14:58;24.40;81.70
47168;DHT22;32931;47.778;17.806;2023-08-31T14:17:24;24.50;81.90
47168;DHT22;32931;47.778;17.806;2023-08-31T14:19:50;24.60;81.00
47168;DHT22;32931;47.778;17.806;2023-08-31T14:22:16;24.70;80.40
47168;DHT22;32931;47.778;17.806;2023-08-31T14:24:42;24.90;80.90
47168;DHT22;32931;47.778;17.806;2023-08-31T14:27:08;25.10;80.30
47168;DHT22;32931;47.778;17.806;2023-08-31T14:29:36;25.20;79.10
47168;DHT22;32931;47.778;17.806;2023-08-31T14:32:03;25.30;80.00
47168;DHT22;32931;47.778;17.806;2023-08-31T14:34:29;25.30;78.40
47168;DHT22;32931;47.778;17.806;2023-08-31T14:36:55;25.30;78.60
47168;DHT22;32931;47.778;17.806;2023-08-31T14:39:23;25.30;78.00
47168;DHT22;32931;47.778;17.806;2023-08-31T14:41:58;25.40;76.80
47168;DHT22;32931;47.778;17.806;2023-08-31T14:44:25;25.50;77.00
47168;DHT22;32931;47.778;17.806;2023-08-31T14:46:52;25.60;78.20
47168;DHT22;32931;47.778;17.806;2023-08-31T14:49:18;25.60;76.70
47168;DHT22;32931;47.778;17.806;2023-08-31T14:51:44;25.70;76.20
47168;DHT22;32931;47.778;17.806;2023-08-31T14:54:11;25.90;75.80
47168;DHT22;32931;47.778;17.806;2023-08-31T14:56:37;25.90;75.40
47168;DHT22;32931;47.778;17.806;2023-08-31T14:59:03;26.00;75.50
47168;DHT22;32931;47.778;17.806;2023-08-31T15:01:29;26.10;75.80
47168;DHT22;32931;47.778;17.806;2023-08-31T15:03:55;26.10;76.10
47168;DHT22;32931;47.778;17.806;2023-08-31T15:06:22;26.10;75.40
47168;DHT22;32931;47.778;17.806;2023-08-31T15:08:48;26.10;75.50
47168;DHT22;32931;47.778;17.806;2023-08-31T15:11:14;26.20;75.70
47168;DHT22;32931;47.778;17.806;2023-08-31T15:13:40;26.20;75.90
47168;DHT22;32931;47.778;17.806;2023-08-31T15:16:07;26.20;76.10
47168;DHT22;32931;47.778;17.806;2023-08-31T15:18:33;26.20;75.20
47168;DHT22;32931;47.778;17.806;2023-08-31T15:20:59;26.30;75.70
47168;DHT22;32931;47.778;17.806;2023-08-31T15:23:25;26.30;75.20
47168;DHT22;32931;47.778;17.806;2023-08-31T15:25:51;26.40;74.90
47168;DHT22;32931;47.778;17.806;2023-08-31T15:28:17;26.50;75.30